As Fabrizia — CQIU3 — position and weather

sailwx.info

Track history (hours):
 
Tides and Currents Weather Stations Pressure Air Temp Water Temp Dewpoint Dewpoint Depression Visibility Wind Speed Wind Dir Waves Ship Positions

As Fabrizia

Last reported at 2018-Jun-16 13:01 UTC. Time now 2018-Jun-19 02:19 UTC.
Position N 17°59' W 064°37'.

Length 166 m; draft 6.9 m.

Type: Ship (hazmat cat D). MMSI: 255806069.

Date/timePositionNaut miles runAvg speedWind from/ knotsBaromVisibWave heightAir tempDewpointWater temp
2018-Jun-16 13:01N 17°59' W 064°37'216.4
2018-Jun-16 12:54N 17°58' W 064°35'916.0
2018-Jun-16 12:20N 17°52' W 064°28'716.2
2018-Jun-16 11:55N 17°47' W 064°23'7216.6
2018-Jun-16 07:35N 16°54' W 063°32'6116.3
2018-Jun-16 03:51N 16°08' W 062°51'816.6
2018-Jun-16 03:22N 16°02' W 062°46'11216.6
2018-Jun-15 20:37N 14°36' W 061°30'216.5
2018-Jun-15 20:29N 14°34' W 061°29'916.8
2018-Jun-15 19:56N 14°27' W 061°23'816.8
2018-Jun-15 19:27N 14°21' W 061°18'716.7
2018-Jun-15 19:00N 14°15' W 061°13'816.5
2018-Jun-15 18:30N 14°09' W 061°07'916.8
2018-Jun-15 17:59N 14°02' W 061°01'1 0.1
2018-Jun-15 10:36N 14°01' W 061°01'1 7.4
2018-Jun-15 10:25N 14°01' W 061°02'  
2018-Jun-11 22:01N 18°10' W 064°56'116.9
2018-Jun-11 21:59N 18°11' W 064°56'8 0.3
2018-Jun-10 22:43N 18°17' W 065°00'  
2018-Jun-08 13:38N 26°08' W 079°20'218.2
2018-Jun-08 13:30N 26°08' W 079°23'917.4
2018-Jun-08 13:00N 26°07' W 079°32'815.6
2018-Jun-08 12:30N 26°07' W 079°41'918.3
2018-Jun-08 12:00N 26°06' W 079°51'918.8
2018-Jun-08 11:30N 26°06' W 080°01'5 9.8
2018-Jun-08 11:00N 26°05' W 080°07'1 2.1
2018-Jun-08 10:28N 26°04' W 080°07'0 0.0
2018-Jun-08 09:58N 26°04' W 080°07'0 0.0
2018-Jun-08 09:30N 26°04' W 080°07'0 0.0
2018-Jun-08 08:59N 26°04' W 080°07'0 0.0
2018-Jun-08 08:29N 26°04' W 080°07'0 0.0
2018-Jun-08 07:59N 26°04' W 080°07'0 0.0
2018-Jun-08 07:29N 26°04' W 080°07'0 0.0
2018-Jun-08 06:59N 26°04' W 080°07'0 0.0
2018-Jun-08 06:29N 26°04' W 080°07'0 0.0
2018-Jun-08 05:59N 26°04' W 080°07'0 0.0
2018-Jun-08 05:30N 26°04' W 080°07'0 0.0
2018-Jun-08 05:00N 26°04' W 080°07'0 0.0
2018-Jun-08 04:30N 26°04' W 080°07'0 0.0
2018-Jun-08 04:00N 26°04' W 080°07'0 0.0
2018-Jun-08 03:30N 26°04' W 080°07'0 0.0
2018-Jun-08 03:00N 26°04' W 080°07'0 0.0
2018-Jun-08 02:30N 26°04' W 080°07'0 0.0
2018-Jun-08 02:00N 26°04' W 080°07'0 0.0
2018-Jun-08 01:30N 26°04' W 080°07'0 0.0
2018-Jun-08 01:00N 26°04' W 080°07'0 0.0
2018-Jun-08 00:29N 26°04' W 080°07'0 0.1
2018-Jun-08 00:00N 26°04' W 080°07'0 0.1
2018-Jun-07 23:29N 26°04' W 080°07'0 0.0
2018-Jun-07 22:59N 26°04' W 080°07'0 0.0
2018-Jun-07 22:29N 26°04' W 080°07'0 0.0
2018-Jun-07 21:59N 26°04' W 080°07'0 0.0
2018-Jun-07 21:29N 26°04' W 080°07'0 0.0
2018-Jun-07 20:59N 26°04' W 080°07'0 0.0
2018-Jun-07 20:29N 26°04' W 080°07'0 0.0
2018-Jun-07 20:00N 26°04' W 080°07'0 0.0
2018-Jun-07 19:30N 26°04' W 080°07'1 2.8
2018-Jun-07 19:01N 26°05' W 080°07'0 0.4
2018-Jun-07 18:28N 26°05' W 080°07'0 0.0
2018-Jun-07 17:58N 26°05' W 080°07'0 0.0
2018-Jun-07 17:28N 26°05' W 080°07'0 0.0
2018-Jun-07 16:58N 26°05' W 080°07'0 0.0
2018-Jun-07 16:28N 26°05' W 080°07'0 0.0
2018-Jun-07 15:58N 26°05' W 080°07'0 0.0
2018-Jun-07 15:19N 26°05' W 080°07'0 0.0
2018-Jun-07 14:58N 26°05' W 080°07'0 0.0
2018-Jun-07 14:28N 26°05' W 080°07'0 0.0
2018-Jun-07 13:49N 26°05' W 080°07'0 0.0
2018-Jun-07 13:19N 26°05' W 080°07'0 0.0
2018-Jun-07 12:49N 26°05' W 080°07'0 0.0
2018-Jun-07 12:19N 26°05' W 080°07'0 0.0
2018-Jun-07 11:52N 26°05' W 080°07'0 0.0
2018-Jun-07 11:22N 26°05' W 080°07'0 0.0
2018-Jun-07 10:52N 26°05' W 080°07'0 0.0
2018-Jun-07 10:22N 26°05' W 080°07'0 0.0
2018-Jun-07 09:52N 26°05' W 080°07'0 0.0
2018-Jun-07 09:25N 26°05' W 080°07'0 0.0
2018-Jun-07 08:55N 26°05' W 080°07'0 0.0
2018-Jun-07 08:25N 26°05' W 080°07'0 0.0
2018-Jun-07 07:55N 26°05' W 080°07'0 0.0
2018-Jun-07 07:28N 26°05' W 080°07'0 0.0
2018-Jun-07 06:58N 26°05' W 080°07'0 0.0
2018-Jun-07 06:28N 26°05' W 080°07'0 0.0
2018-Jun-07 05:58N 26°05' W 080°07'0 0.0
2018-Jun-07 05:28N 26°05' W 080°07'0 0.0
2018-Jun-07 04:58N 26°05' W 080°07'0 0.0
2018-Jun-07 04:29N 26°05' W 080°07'0 1.0
2018-Jun-07 04:00N 26°05' W 080°07'1 1.3
2018-Jun-07 03:28N 26°04' W 080°07'0 0.0
2018-Jun-07 02:58N 26°04' W 080°07'0 0.0
2018-Jun-07 02:24N 26°04' W 080°07'0 0.0
2018-Jun-07 02:00N 26°04' W 080°07'0 0.0
2018-Jun-07 01:30N 26°04' W 080°07'0 0.0
2018-Jun-07 00:59N 26°04' W 080°07'0 0.0
2018-Jun-07 00:23N 26°04' W 080°07'0 0.0
2018-Jun-06 23:59N 26°04' W 080°07'0 0.0
2018-Jun-06 23:26N 26°04' W 080°07'0 0.0
2018-Jun-06 22:59N 26°04' W 080°07'0 0.0
2018-Jun-06 22:29N 26°04' W 080°07'0 0.0
2018-Jun-06 21:56N 26°04' W 080°07'0 0.0
2018-Jun-06 21:26N 26°04' W 080°07'0 0.0
2018-Jun-06 20:59N 26°04' W 080°07'0 0.0
2018-Jun-06 20:30N 26°04' W 080°07'0 0.0
2018-Jun-06 19:59N 26°04' W 080°07'0 0.0
2018-Jun-06 19:29N 26°04' W 080°07'0 0.0
2018-Jun-06 18:59N 26°04' W 080°07'0 0.0
2018-Jun-06 18:29N 26°04' W 080°07'0 0.0
2018-Jun-06 17:59N 26°04' W 080°07'0 0.0
2018-Jun-06 17:29N 26°04' W 080°07'0 0.0
2018-Jun-06 16:59N 26°04' W 080°07'0 0.0
2018-Jun-06 16:29N 26°04' W 080°07'0 0.0
2018-Jun-06 15:59N 26°04' W 080°07'0 0.0
2018-Jun-06 15:29N 26°04' W 080°07'0 0.0
2018-Jun-06 14:59N 26°04' W 080°07'0 0.6
2018-Jun-06 14:30N 26°04' W 080°07'3 6.3
2018-Jun-06 14:00N 26°06' W 080°04'5 9.6
2018-Jun-06 13:30N 26°06' W 079°58'  
Track history (hours):
 
Tides and Currents Weather Stations Pressure Air Temp Water Temp Dewpoint Dewpoint Depression Visibility Wind Speed Wind Dir Waves Ship Positions

As Fabrizia

Last reported at 2018-Jun-16 13:01 UTC. Time now 2018-Jun-19 02:19 UTC.
Position N 17°59' W 064°37'.

Length 166 m; draft 6.9 m.

Type: Ship (hazmat cat D). MMSI: 255806069.

Date/timePositionNaut miles runAvg speedWind from/ knotsBaromVisibWave heightAir tempDewpointWater temp
2018-Jun-16 13:01N 17°59' W 064°37'216.4
2018-Jun-16 12:54N 17°58' W 064°35'916.0
2018-Jun-16 12:20N 17°52' W 064°28'716.2
2018-Jun-16 11:55N 17°47' W 064°23'7216.6
2018-Jun-16 07:35N 16°54' W 063°32'6116.3
2018-Jun-16 03:51N 16°08' W 062°51'816.6
2018-Jun-16 03:22N 16°02' W 062°46'11216.6
2018-Jun-15 20:37N 14°36' W 061°30'216.5
2018-Jun-15 20:29N 14°34' W 061°29'916.8
2018-Jun-15 19:56N 14°27' W 061°23'816.8
2018-Jun-15 19:27N 14°21' W 061°18'716.7
2018-Jun-15 19:00N 14°15' W 061°13'816.5
2018-Jun-15 18:30N 14°09' W 061°07'916.8
2018-Jun-15 17:59N 14°02' W 061°01'1 0.1
2018-Jun-15 10:36N 14°01' W 061°01'1 7.4
2018-Jun-15 10:25N 14°01' W 061°02'  
2018-Jun-11 22:01N 18°10' W 064°56'116.9
2018-Jun-11 21:59N 18°11' W 064°56'8 0.3
2018-Jun-10 22:43N 18°17' W 065°00'  
2018-Jun-08 13:38N 26°08' W 079°20'218.2
2018-Jun-08 13:30N 26°08' W 079°23'917.4
2018-Jun-08 13:00N 26°07' W 079°32'815.6
2018-Jun-08 12:30N 26°07' W 079°41'918.3
2018-Jun-08 12:00N 26°06' W 079°51'918.8
2018-Jun-08 11:30N 26°06' W 080°01'5 9.8
2018-Jun-08 11:00N 26°05' W 080°07'1 2.1
2018-Jun-08 10:28N 26°04' W 080°07'0 0.0
2018-Jun-08 09:58N 26°04' W 080°07'0 0.0
2018-Jun-08 09:30N 26°04' W 080°07'0 0.0
2018-Jun-08 08:59N 26°04' W 080°07'0 0.0
2018-Jun-08 08:29N 26°04' W 080°07'0 0.0
2018-Jun-08 07:59N 26°04' W 080°07'0 0.0
2018-Jun-08 07:29N 26°04' W 080°07'0 0.0
2018-Jun-08 06:59N 26°04' W 080°07'0 0.0
2018-Jun-08 06:29N 26°04' W 080°07'0 0.0
2018-Jun-08 05:59N 26°04' W 080°07'0 0.0
2018-Jun-08 05:30N 26°04' W 080°07'0 0.0
2018-Jun-08 05:00N 26°04' W 080°07'0 0.0
2018-Jun-08 04:30N 26°04' W 080°07'0 0.0
2018-Jun-08 04:00N 26°04' W 080°07'0 0.0
2018-Jun-08 03:30N 26°04' W 080°07'0 0.0
2018-Jun-08 03:00N 26°04' W 080°07'0 0.0
2018-Jun-08 02:30N 26°04' W 080°07'0 0.0
2018-Jun-08 02:00N 26°04' W 080°07'0 0.0
2018-Jun-08 01:30N 26°04' W 080°07'0 0.0
2018-Jun-08 01:00N 26°04' W 080°07'0 0.0
2018-Jun-08 00:29N 26°04' W 080°07'0 0.1
2018-Jun-08 00:00N 26°04' W 080°07'0 0.1
2018-Jun-07 23:29N 26°04' W 080°07'0 0.0
2018-Jun-07 22:59N 26°04' W 080°07'0 0.0
2018-Jun-07 22:29N 26°04' W 080°07'0 0.0
2018-Jun-07 21:59N 26°04' W 080°07'0 0.0
2018-Jun-07 21:29N 26°04' W 080°07'0 0.0
2018-Jun-07 20:59N 26°04' W 080°07'0 0.0
2018-Jun-07 20:29N 26°04' W 080°07'0 0.0
2018-Jun-07 20:00N 26°04' W 080°07'0 0.0
2018-Jun-07 19:30N 26°04' W 080°07'1 2.8
2018-Jun-07 19:01N 26°05' W 080°07'0 0.4
2018-Jun-07 18:28N 26°05' W 080°07'0 0.0
2018-Jun-07 17:58N 26°05' W 080°07'0 0.0
2018-Jun-07 17:28N 26°05' W 080°07'0 0.0
2018-Jun-07 16:58N 26°05' W 080°07'0 0.0
2018-Jun-07 16:28N 26°05' W 080°07'0 0.0
2018-Jun-07 15:58N 26°05' W 080°07'0 0.0
2018-Jun-07 15:19N 26°05' W 080°07'0 0.0
2018-Jun-07 14:58N 26°05' W 080°07'0 0.0
2018-Jun-07 14:28N 26°05' W 080°07'0 0.0
2018-Jun-07 13:49N 26°05' W 080°07'0 0.0
2018-Jun-07 13:19N 26°05' W 080°07'0 0.0
2018-Jun-07 12:49N 26°05' W 080°07'0 0.0
2018-Jun-07 12:19N 26°05' W 080°07'0 0.0
2018-Jun-07 11:52N 26°05' W 080°07'0 0.0
2018-Jun-07 11:22N 26°05' W 080°07'0 0.0
2018-Jun-07 10:52N 26°05' W 080°07'0 0.0
2018-Jun-07 10:22N 26°05' W 080°07'0 0.0
2018-Jun-07 09:52N 26°05' W 080°07'0 0.0
2018-Jun-07 09:25N 26°05' W 080°07'0 0.0
2018-Jun-07 08:55N 26°05' W 080°07'0 0.0
2018-Jun-07 08:25N 26°05' W 080°07'0 0.0
2018-Jun-07 07:55N 26°05' W 080°07'0 0.0
2018-Jun-07 07:28N 26°05' W 080°07'0 0.0
2018-Jun-07 06:58N 26°05' W 080°07'0 0.0
2018-Jun-07 06:28N 26°05' W 080°07'0 0.0
2018-Jun-07 05:58N 26°05' W 080°07'0 0.0
2018-Jun-07 05:28N 26°05' W 080°07'0 0.0
2018-Jun-07 04:58N 26°05' W 080°07'0 0.0
2018-Jun-07 04:29N 26°05' W 080°07'0 1.0
2018-Jun-07 04:00N 26°05' W 080°07'1 1.3
2018-Jun-07 03:28N 26°04' W 080°07'0 0.0
2018-Jun-07 02:58N 26°04' W 080°07'0 0.0
2018-Jun-07 02:24N 26°04' W 080°07'0 0.0
2018-Jun-07 02:00N 26°04' W 080°07'0 0.0
2018-Jun-07 01:30N 26°04' W 080°07'0 0.0
2018-Jun-07 00:59N 26°04' W 080°07'0 0.0
2018-Jun-07 00:23N 26°04' W 080°07'0 0.0
2018-Jun-06 23:59N 26°04' W 080°07'0 0.0
2018-Jun-06 23:26N 26°04' W 080°07'0 0.0
2018-Jun-06 22:59N 26°04' W 080°07'0 0.0
2018-Jun-06 22:29N 26°04' W 080°07'0 0.0
2018-Jun-06 21:56N 26°04' W 080°07'0 0.0
2018-Jun-06 21:26N 26°04' W 080°07'0 0.0
2018-Jun-06 20:59N 26°04' W 080°07'0 0.0
2018-Jun-06 20:30N 26°04' W 080°07'0 0.0
2018-Jun-06 19:59N 26°04' W 080°07'0 0.0
2018-Jun-06 19:29N 26°04' W 080°07'0 0.0
2018-Jun-06 18:59N 26°04' W 080°07'0 0.0
2018-Jun-06 18:29N 26°04' W 080°07'0 0.0
2018-Jun-06 17:59N 26°04' W 080°07'0 0.0
2018-Jun-06 17:29N 26°04' W 080°07'0 0.0
2018-Jun-06 16:59N 26°04' W 080°07'0 0.0
2018-Jun-06 16:29N 26°04' W 080°07'0 0.0
2018-Jun-06 15:59N 26°04' W 080°07'0 0.0
2018-Jun-06 15:29N 26°04' W 080°07'0 0.0
2018-Jun-06 14:59N 26°04' W 080°07'0 0.6
2018-Jun-06 14:30N 26°04' W 080°07'3 6.3
2018-Jun-06 14:00N 26°06' W 080°04'5 9.6
2018-Jun-06 13:30N 26°06' W 079°58'  

Dump ship's entire track history